Time;durP1;ratioP1;P1;durP2;ratioP2;P2;SDS_P1;SDS_P2;PMS_P1;PMS_P2;Temp;Humidity;BMP_temperature;BMP_pressure;BME280_temperature;BME280_humidity;BME280_pressure;Samples;Min_cycle;Max_cycle;Signal;HPM_P1;HPM_P2
2022/06/12 00:01:54;;;;;;;;;;;12.90;99.90;;;;;;5072095;28;20307;-74
2022/06/12 00:04:20;;;;;;;;;;;12.80;99.90;;;;;;5071792;28;19912;-76
2022/06/12 00:06:47;;;;;;;;;;;12.80;99.90;;;;;;5072204;28;19912;-75
2022/06/12 00:09:13;;;;;;;;;;;12.90;99.90;;;;;;5072313;28;19908;-74
2022/06/12 00:11:40;;;;;;;;;;;12.90;99.90;;;;;;5071859;28;19954;-74
2022/06/12 00:14:05;;;;;;;;;;;12.90;99.90;;;;;;5071607;28;19909;-74
2022/06/12 00:16:32;;;;;;;;;;;12.90;99.90;;;;;;5072228;28;20226;-74
2022/06/12 00:18:58;;;;;;;;;;;12.90;99.90;;;;;;5075281;28;19946;-77
2022/06/12 00:21:24;;;;;;;;;;;12.90;99.90;;;;;;5083025;28;19963;-73
2022/06/12 00:23:51;;;;;;;;;;;12.80;99.90;;;;;;5071391;28;20350;-74
2022/06/12 00:26:29;;;;;;;;;;;12.90;99.90;;;;;;5071976;28;19955;-74
2022/06/12 00:28:59;;;;;;;;;;;12.80;99.90;;;;;;5071791;28;20353;-74
2022/06/12 00:31:24;;;;;;;;;;;12.70;99.90;;;;;;5071405;28;20385;-74
2022/06/12 00:33:50;;;;;;;;;;;12.70;99.90;;;;;;5071275;28;19916;-76
2022/06/12 00:36:16;;;;;;;;;;;12.60;99.90;;;;;;5071481;28;19916;-74
2022/06/12 00:38:41;;;;;;;;;;;12.50;99.90;;;;;;5071757;28;19912;-74
2022/06/12 00:41:07;;;;;;;;;;;12.50;99.90;;;;;;5071602;28;19948;-74
2022/06/12 00:43:32;;;;;;;;;;;12.40;99.90;;;;;;5070967;28;19913;-75
2022/06/12 00:45:59;;;;;;;;;;;12.40;99.90;;;;;;5071897;28;20095;-74
2022/06/12 00:48:27;;;;;;;;;;;12.40;99.90;;;;;;5078041;28;19916;-75
2022/06/12 00:50:58;;;;;;;;;;;12.40;99.90;;;;;;5075775;28;19916;-74
2022/06/12 00:53:26;;;;;;;;;;;12.40;99.90;;;;;;5070596;28;19912;-75
2022/06/12 00:55:55;;;;;;;;;;;12.40;99.90;;;;;;5071421;28;20000;-73
2022/06/12 00:58:22;;;;;;;;;;;12.40;99.90;;;;;;5071613;28;19912;-74
2022/06/12 01:00:48;;;;;;;;;;;12.40;99.90;;;;;;5071695;28;20362;-74
2022/06/12 01:03:13;;;;;;;;;;;12.30;99.90;;;;;;5070482;28;19912;-74
2022/06/12 01:08:24;;;;;;;;;;;12.20;99.90;;;;;;5071615;28;19920;-77
2022/06/12 01:10:51;;;;;;;;;;;12.20;99.90;;;;;;5071457;28;20370;-74
2022/06/12 01:13:22;;;;;;;;;;;12.30;99.90;;;;;;5070559;28;20094;-74
2022/06/12 01:15:49;;;;;;;;;;;12.30;99.90;;;;;;5070018;28;19908;-77
2022/06/12 01:18:17;;;;;;;;;;;12.30;99.90;;;;;;5076694;28;19912;-75
2022/06/12 01:20:51;;;;;;;;;;;12.30;99.90;;;;;;5079223;28;19977;-74
2022/06/12 01:23:37;;;;;;;;;;;12.30;99.90;;;;;;5082697;28;19912;-74
2022/06/12 01:26:02;;;;;;;;;;;12.20;99.90;;;;;;5060363;28;19916;-74
2022/06/12 01:28:33;;;;;;;;;;;12.20;99.90;;;;;;5071344;28;19909;-74
2022/06/12 01:31:02;;;;;;;;;;;12.10;99.90;;;;;;5071408;28;20002;-74
2022/06/12 01:33:34;;;;;;;;;;;12.10;99.90;;;;;;5068967;28;19912;-76
2022/06/12 01:36:03;;;;;;;;;;;12.10;99.90;;;;;;5070841;28;19923;-75
2022/06/12 01:38:28;;;;;;;;;;;12.10;99.90;;;;;;5071200;28;19913;-75
2022/06/12 01:40:59;;;;;;;;;;;12.20;99.90;;;;;;5071839;28;19908;-77
2022/06/12 01:43:42;;;;;;;;;;;12.10;99.90;;;;;;5074153;28;19942;-75
2022/06/12 01:46:16;;;;;;;;;;;12.10;99.90;;;;;;5075134;28;20015;-74
2022/06/12 01:48:42;;;;;;;;;;;12.10;99.90;;;;;;5076323;28;19908;-75
2022/06/12 01:51:26;;;;;;;;;;;12.00;99.90;;;;;;5091082;28;19915;-75
2022/06/12 01:54:11;;;;;;;;;;;11.90;99.90;;;;;;5073898;28;19920;-74
2022/06/12 01:56:39;;;;;;;;;;;11.80;99.90;;;;;;5092688;28;19912;-75
2022/06/12 01:59:14;;;;;;;;;;;11.70;99.90;;;;;;5094515;28;19944;-74
2022/06/12 02:01:51;;;;;;;;;;;11.80;99.90;;;;;;5092469;28;19908;-74
2022/06/12 02:04:20;;;;;;;;;;;11.90;99.90;;;;;;5093621;28;19912;-76
2022/06/12 02:06:57;;;;;;;;;;;11.90;99.90;;;;;;5093714;28;19981;-74
2022/06/12 02:09:29;;;;;;;;;;;11.90;99.90;;;;;;5094353;28;19908;-74
2022/06/12 02:15:04;;;;;;;;;;;11.80;99.90;;;;;;5093695;28;19919;-74
2022/06/12 02:17:35;;;;;;;;;;;11.80;99.90;;;;;;5048177;28;20293;-74
2022/06/12 02:20:03;;;;;;;;;;;11.80;99.90;;;;;;5080873;28;19909;-74
2022/06/12 02:22:31;;;;;;;;;;;11.70;99.90;;;;;;5073234;28;20011;-74
2022/06/12 02:25:01;;;;;;;;;;;11.60;99.90;;;;;;5073777;28;20366;-74
2022/06/12 02:27:31;;;;;;;;;;;11.60;99.90;;;;;;5074196;28;19919;-74
2022/06/12 02:29:58;;;;;;;;;;;11.50;99.90;;;;;;5072848;28;20259;-74
2022/06/12 02:32:57;;;;;;;;;;;11.60;99.90;;;;;;5073715;28;19916;-74
2022/06/12 02:35:34;;;;;;;;;;;11.70;99.90;;;;;;5044578;28;19908;-74
2022/06/12 02:38:04;;;;;;;;;;;11.70;99.90;;;;;;5072423;28;19916;-74
2022/06/12 02:40:35;;;;;;;;;;;11.80;99.90;;;;;;5072767;28;20377;-74
2022/06/12 02:43:04;;;;;;;;;;;11.70;99.90;;;;;;5082646;28;19914;-74
2022/06/12 02:45:50;;;;;;;;;;;11.70;99.90;;;;;;5093262;28;20401;-76
2022/06/12 02:48:16;;;;;;;;;;;11.60;99.90;;;;;;5092268;28;19918;-75
2022/06/12 02:50:54;;;;;;;;;;;11.50;99.90;;;;;;5084037;28;19909;-76
2022/06/12 02:53:29;;;;;;;;;;;11.50;99.90;;;;;;5085956;28;19909;-76
2022/06/12 02:56:02;;;;;;;;;;;11.40;99.90;;;;;;5075376;28;20007;-76
2022/06/12 02:58:37;;;;;;;;;;;11.40;99.90;;;;;;5073974;28;20416;-76
2022/06/12 03:01:11;;;;;;;;;;;11.40;99.90;;;;;;5073807;28;20424;-76
2022/06/12 03:03:40;;;;;;;;;;;11.40;99.90;;;;;;5072786;28;19999;-76
2022/06/12 03:06:06;;;;;;;;;;;11.30;99.90;;;;;;5073595;28;19915;-76
2022/06/12 03:08:34;;;;;;;;;;;11.30;99.90;;;;;;5072122;28;19908;-75
2022/06/12 03:11:13;;;;;;;;;;;11.20;99.90;;;;;;5073514;28;20365;-75
2022/06/12 03:13:39;;;;;;;;;;;11.10;99.90;;;;;;5072969;28;19916;-75
2022/06/12 03:16:08;;;;;;;;;;;11.00;99.90;;;;;;5073444;28;19971;-75
2022/06/12 03:18:35;;;;;;;;;;;11.00;99.90;;;;;;5079864;28;19912;-75
2022/06/12 03:21:09;;;;;;;;;;;11.00;99.90;;;;;;5079139;28;20003;-76
2022/06/12 03:23:35;;;;;;;;;;;11.00;99.90;;;;;;5072059;28;19916;-75
2022/06/12 03:26:03;;;;;;;;;;;11.20;99.90;;;;;;5071923;28;19908;-76
2022/06/12 03:28:35;;;;;;;;;;;11.20;99.90;;;;;;5073419;28;19934;-76
2022/06/12 03:31:09;;;;;;;;;;;11.10;99.90;;;;;;5079540;28;19912;-75
2022/06/12 03:33:38;;;;;;;;;;;11.10;99.90;;;;;;5072441;28;20009;-75
2022/06/12 03:36:03;;;;;;;;;;;11.10;99.90;;;;;;5073022;28;19974;-76
2022/06/12 03:38:38;;;;;;;;;;;11.20;99.90;;;;;;5073039;28;20385;-76
2022/06/12 03:41:23;;;;;;;;;;;11.20;99.90;;;;;;5073164;28;20365;-75
2022/06/12 03:44:07;;;;;;;;;;;11.10;99.90;;;;;;5073112;28;20115;-75
2022/06/12 03:46:39;;;;;;;;;;;11.10;99.90;;;;;;5085842;28;20003;-75
2022/06/12 03:49:10;;;;;;;;;;;11.20;99.90;;;;;;5083380;28;19909;-75
2022/06/12 03:51:46;;;;;;;;;;;11.30;99.90;;;;;;5073585;28;20434;-76
2022/06/12 03:54:16;;;;;;;;;;;11.30;99.90;;;;;;5072527;28;19909;-76
2022/06/12 03:59:38;;;;;;;;;;;11.40;99.90;;;;;;5079295;28;19914;-77
2022/06/12 04:02:04;;;;;;;;;;;11.50;99.90;;;;;;5090413;28;19920;-75
2022/06/12 04:04:32;;;;;;;;;;;11.60;99.90;;;;;;5091046;28;20357;-75
2022/06/12 04:06:59;;;;;;;;;;;11.60;99.90;;;;;;5091816;28;19908;-76
2022/06/12 04:09:26;;;;;;;;;;;11.60;99.90;;;;;;5090765;28;19908;-76
2022/06/12 04:11:54;;;;;;;;;;;11.70;99.90;;;;;;5091626;28;20003;-76
2022/06/12 04:14:21;;;;;;;;;;;11.80;99.90;;;;;;5091420;28;20284;-76
2022/06/12 04:16:52;;;;;;;;;;;11.90;99.90;;;;;;5090445;28;20081;-76
2022/06/12 04:19:20;;;;;;;;;;;12.00;99.90;;;;;;5078892;28;19908;-76
2022/06/12 04:21:54;;;;;;;;;;;12.10;99.90;;;;;;5081433;28;20265;-76
2022/06/12 04:24:19;;;;;;;;;;;12.40;99.90;;;;;;5085489;28;20263;-76
2022/06/12 04:26:49;;;;;;;;;;;12.50;99.90;;;;;;5091677;28;19924;-76
2022/06/12 04:29:14;;;;;;;;;;;12.70;99.90;;;;;;5088524;28;19908;-76
2022/06/12 04:31:41;;;;;;;;;;;12.80;99.90;;;;;;5071745;28;20381;-76
2022/06/12 04:34:11;;;;;;;;;;;12.80;99.90;;;;;;5071439;28;20383;-76
2022/06/12 04:36:37;;;;;;;;;;;13.00;99.90;;;;;;5071721;28;20006;-76
2022/06/12 04:39:03;;;;;;;;;;;13.10;99.90;;;;;;5072128;28;20004;-76
2022/06/12 04:41:35;;;;;;;;;;;13.30;99.90;;;;;;5071614;28;20011;-76
2022/06/12 04:44:04;;;;;;;;;;;13.50;99.90;;;;;;5079093;28;20422;-76
2022/06/12 04:46:30;;;;;;;;;;;13.50;99.90;;;;;;5091364;28;20196;-76
2022/06/12 04:48:57;;;;;;;;;;;13.60;99.90;;;;;;5082207;28;19909;-76
2022/06/12 04:51:22;;;;;;;;;;;13.70;99.90;;;;;;5077719;28;20435;-77
2022/06/12 04:53:49;;;;;;;;;;;13.70;99.90;;;;;;5071098;28;19951;-77
2022/06/12 04:56:15;;;;;;;;;;;13.80;99.90;;;;;;5072315;28;19909;-76
2022/06/12 04:58:42;;;;;;;;;;;14.00;99.90;;;;;;5091307;28;19908;-76
2022/06/12 05:01:08;;;;;;;;;;;14.00;99.90;;;;;;5091141;28;20006;-76
2022/06/12 05:03:34;;;;;;;;;;;14.10;99.90;;;;;;5088905;28;19912;-76
2022/06/12 05:05:59;;;;;;;;;;;14.20;99.90;;;;;;5091066;28;20258;-76
2022/06/12 05:08:25;;;;;;;;;;;14.40;99.90;;;;;;5071417;28;19915;-76
2022/06/12 05:10:51;;;;;;;;;;;14.50;99.90;;;;;;5071635;28;19918;-77
2022/06/12 05:13:16;;;;;;;;;;;14.60;99.90;;;;;;5070758;28;19908;-77
2022/06/12 05:15:43;;;;;;;;;;;14.70;99.90;;;;;;5071543;28;20037;-76
2022/06/12 05:18:10;;;;;;;;;;;14.80;99.90;;;;;;5076814;28;20628;-76
2022/06/12 05:20:36;;;;;;;;;;;14.90;99.90;;;;;;5078320;28;20357;-77
2022/06/12 05:23:03;;;;;;;;;;;15.00;99.90;;;;;;5070455;28;19917;-77
2022/06/12 05:25:30;;;;;;;;;;;15.10;99.90;;;;;;5075471;28;19935;-77
2022/06/12 05:27:55;;;;;;;;;;;15.20;99.90;;;;;;5078870;28;20051;-77
2022/06/12 05:30:23;;;;;;;;;;;15.30;99.90;;;;;;5071254;28;19970;-77
2022/06/12 05:32:50;;;;;;;;;;;15.40;99.90;;;;;;5070800;28;19909;-77
2022/06/12 05:35:16;;;;;;;;;;;15.50;99.90;;;;;;5070873;28;19916;-77
2022/06/12 05:37:42;;;;;;;;;;;15.70;99.90;;;;;;5069781;28;20002;-77
2022/06/12 05:40:12;;;;;;;;;;;15.80;99.90;;;;;;5071419;28;19915;-77
2022/06/12 05:42:38;;;;;;;;;;;16.00;99.90;;;;;;5071022;28;19923;-77
2022/06/12 05:45:08;;;;;;;;;;;16.20;99.90;;;;;;5070731;28;19916;-75
2022/06/12 05:47:33;;;;;;;;;;;16.40;99.90;;;;;;5071078;28;19909;-74
2022/06/12 05:49:59;;;;;;;;;;;16.80;99.90;;;;;;5075772;28;19915;-75
2022/06/12 05:52:24;;;;;;;;;;;17.70;99.90;;;;;;5075262;28;19908;-75
2022/06/12 05:54:50;;;;;;;;;;;18.70;99.90;;;;;;5070677;28;19908;-75
2022/06/12 05:57:15;;;;;;;;;;;19.50;99.90;;;;;;5071141;28;19917;-76
2022/06/12 05:59:41;;;;;;;;;;;20.40;99.90;;;;;;5088085;28;19908;-75
2022/06/12 06:02:06;;;;;;;;;;;20.60;99.90;;;;;;5089780;28;19908;-75
2022/06/12 06:04:32;;;;;;;;;;;21.30;99.90;;;;;;5089735;28;20007;-77
2022/06/12 06:06:59;;;;;;;;;;;21.50;99.90;;;;;;5090204;28;19908;-76
2022/06/12 06:09:25;;;;;;;;;;;21.50;99.90;;;;;;5090443;28;19915;-76
2022/06/12 06:11:51;;;;;;;;;;;21.80;99.90;;;;;;5083934;28;19916;-76
2022/06/12 06:14:17;;;;;;;;;;;22.00;99.90;;;;;;5080527;28;19961;-76
2022/06/12 06:16:42;;;;;;;;;;;21.90;99.90;;;;;;5079871;28;19912;-75
2022/06/12 06:19:09;;;;;;;;;;;21.70;99.90;;;;;;5083705;28;19914;-75
2022/06/12 06:21:34;;;;;;;;;;;21.80;99.90;;;;;;5090359;28;20423;-76
2022/06/12 06:24:00;;;;;;;;;;;21.20;99.90;;;;;;5074590;28;19916;-76
2022/06/12 06:26:26;;;;;;;;;;;20.30;99.90;;;;;;5070932;28;19954;-75
2022/06/12 06:28:52;;;;;;;;;;;20.70;99.90;;;;;;5074396;28;19916;-76
2022/06/12 06:31:18;;;;;;;;;;;22.00;99.90;;;;;;5073806;28;20359;-76
2022/06/12 06:33:44;;;;;;;;;;;22.70;99.90;;;;;;5073397;28;19920;-76
2022/06/12 06:36:10;;;;;;;;;;;23.20;99.90;;;;;;5088670;28;19912;-76
2022/06/12 06:38:36;;;;;;;;;;;23.10;99.90;;;;;;5093561;28;20373;-76
2022/06/12 06:41:02;;;;;;;;;;;23.10;99.90;;;;;;5093825;28;20323;-76
2022/06/12 06:43:27;;;;;;;;;;;23.10;99.90;;;;;;5092946;28;19908;-76
2022/06/12 06:48:36;;;;;;;;;;;24.00;99.90;;;;;;5080672;28;20000;-76
2022/06/12 06:51:02;;;;;;;;;;;24.40;99.60;;;;;;5080436;28;19939;-76
2022/06/12 06:53:27;;;;;;;;;;;24.40;98.50;;;;;;5072454;28;19912;-76
2022/06/12 06:55:53;;;;;;;;;;;24.40;98.40;;;;;;5073913;28;20390;-76
2022/06/12 06:58:20;;;;;;;;;;;24.30;98.40;;;;;;5073843;28;19913;-76
2022/06/12 07:00:46;;;;;;;;;;;24.10;98.50;;;;;;5072554;28;19909;-76
2022/06/12 07:03:12;;;;;;;;;;;24.40;99.50;;;;;;5072946;28;19916;-76
2022/06/12 07:05:38;;;;;;;;;;;24.80;98.40;;;;;;5074011;28;19908;-77
2022/06/12 07:08:04;;;;;;;;;;;25.30;98.40;;;;;;5073509;28;19919;-77
2022/06/12 07:10:31;;;;;;;;;;;25.70;94.40;;;;;;5073824;28;19955;-77
2022/06/12 07:12:56;;;;;;;;;;;25.10;96.10;;;;;;5071679;28;19913;-75
2022/06/12 07:15:23;;;;;;;;;;;24.70;93.50;;;;;;5072954;28;20281;-78
2022/06/12 07:17:49;;;;;;;;;;;24.90;93.20;;;;;;5075039;28;19912;-75
2022/06/12 07:20:16;;;;;;;;;;;25.70;94.70;;;;;;5084590;28;19908;-75
2022/06/12 07:22:41;;;;;;;;;;;26.00;93.10;;;;;;5079309;28;19942;-75
2022/06/12 07:25:08;;;;;;;;;;;25.80;91.70;;;;;;5072886;28;20300;-75
2022/06/12 07:27:33;;;;;;;;;;;26.00;92.50;;;;;;5073399;28;19915;-75
2022/06/12 07:29:59;;;;;;;;;;;25.60;88.60;;;;;;5073329;28;20251;-75
2022/06/12 07:32:25;;;;;;;;;;;26.00;90.70;;;;;;5071591;28;19958;-75
2022/06/12 07:34:51;;;;;;;;;;;26.40;90.80;;;;;;5084961;28;19912;-75
2022/06/12 07:37:16;;;;;;;;;;;26.60;84.20;;;;;;5093161;28;20288;-75
2022/06/12 07:39:44;;;;;;;;;;;27.30;81.60;;;;;;5092833;28;20361;-75
2022/06/12 07:42:09;;;;;;;;;;;27.20;87.70;;;;;;5093323;28;19954;-75
2022/06/12 07:44:35;;;;;;;;;;;27.30;87.90;;;;;;5089504;28;19909;-74
2022/06/12 07:47:01;;;;;;;;;;;26.80;86.20;;;;;;5072921;28;19935;-76
2022/06/12 07:49:28;;;;;;;;;;;26.50;84.80;;;;;;5080139;28;19914;-74
2022/06/12 07:51:54;;;;;;;;;;;26.40;86.80;;;;;;5075791;28;20304;-74
2022/06/12 07:54:20;;;;;;;;;;;26.80;87.70;;;;;;5072342;28;19916;-75
2022/06/12 07:56:46;;;;;;;;;;;27.50;84.60;;;;;;5074852;28;19916;-74
2022/06/12 07:59:12;;;;;;;;;;;27.80;87.00;;;;;;5078510;28;19915;-74
2022/06/12 08:01:38;;;;;;;;;;;28.10;78.80;;;;;;5092616;28;19908;-74
2022/06/12 08:04:04;;;;;;;;;;;28.60;84.60;;;;;;5092851;28;20381;-74
2022/06/12 08:06:30;;;;;;;;;;;28.30;83.00;;;;;;5092317;28;19915;-74
2022/06/12 08:08:57;;;;;;;;;;;27.40;82.80;;;;;;5092984;28;19912;-75
2022/06/12 08:11:24;;;;;;;;;;;28.10;83.20;;;;;;5092435;28;19918;-74
2022/06/12 08:13:49;;;;;;;;;;;28.60;78.00;;;;;;5094057;28;19912;-76
2022/06/12 08:16:15;;;;;;;;;;;28.40;81.70;;;;;;5093177;28;20314;-75
2022/06/12 08:18:41;;;;;;;;;;;28.90;77.20;;;;;;5086559;28;20334;-75
2022/06/12 08:21:08;;;;;;;;;;;29.10;77.40;;;;;;5080285;28;19920;-75
2022/06/12 08:23:43;;;;;;;;;;;28.80;72.30;;;;;;5073830;28;19920;-75
2022/06/12 08:26:13;;;;;;;;;;;28.80;72.10;;;;;;5088506;28;19908;-75
2022/06/12 08:28:48;;;;;;;;;;;29.50;68.80;;;;;;5082962;28;19908;-75
2022/06/12 08:31:15;;;;;;;;;;;29.20;70.80;;;;;;5091482;28;20179;-75
2022/06/12 08:33:42;;;;;;;;;;;28.60;71.50;;;;;;5082162;28;19962;-75
2022/06/12 08:36:10;;;;;;;;;;;29.20;72.20;;;;;;5072920;28;19916;-75
2022/06/12 08:38:35;;;;;;;;;;;28.70;66.90;;;;;;5072804;28;19999;-75
2022/06/12 08:41:17;;;;;;;;;;;29.30;67.40;;;;;;5073290;28;19908;-75
2022/06/12 08:43:45;;;;;;;;;;;29.70;67.10;;;;;;5072770;28;19931;-75
2022/06/12 08:46:34;;;;;;;;;;;30.60;65.40;;;;;;5072468;28;20006;-75
2022/06/12 08:49:05;;;;;;;;;;;30.60;75.50;;;;;;5070894;28;20512;-74
2022/06/12 08:51:33;;;;;;;;;;;30.90;69.00;;;;;;5079743;28;19994;-74
2022/06/12 08:54:06;;;;;;;;;;;29.30;67.00;;;;;;5072021;28;19909;-75
2022/06/12 08:56:35;;;;;;;;;;;30.90;68.90;;;;;;5070991;28;19920;-75
2022/06/12 08:59:17;;;;;;;;;;;31.40;66.50;;;;;;5083100;28;19969;-75
2022/06/12 09:01:43;;;;;;;;;;;32.10;67.60;;;;;;5079097;28;19913;-75
2022/06/12 09:04:13;;;;;;;;;;;31.40;60.50;;;;;;5073320;28;20366;-75
2022/06/12 09:06:48;;;;;;;;;;;30.80;70.70;;;;;;5072974;28;19915;-74
2022/06/12 09:09:13;;;;;;;;;;;31.40;69.50;;;;;;5085805;28;20005;-75
2022/06/12 09:11:48;;;;;;;;;;;31.80;63.70;;;;;;5091725;28;19938;-75
2022/06/12 09:14:23;;;;;;;;;;;31.80;70.30;;;;;;5090635;28;19912;-75
2022/06/12 09:16:59;;;;;;;;;;;31.50;66.30;;;;;;5072542;28;20394;-74
2022/06/12 09:19:33;;;;;;;;;;;31.10;70.40;;;;;;5073738;28;19966;-74
2022/06/12 09:22:09;;;;;;;;;;;30.80;64.60;;;;;;5083498;28;19935;-75
2022/06/12 09:24:47;;;;;;;;;;;30.10;68.20;;;;;;5083746;28;20403;-75
2022/06/12 09:27:28;;;;;;;;;;;30.80;73.70;;;;;;5071971;28;19908;-75
2022/06/12 09:30:08;;;;;;;;;;;31.10;70.50;;;;;;5071999;28;20015;-75
2022/06/12 09:32:54;;;;;;;;;;;30.40;67.20;;;;;;5082051;28;19908;-75
2022/06/12 09:35:28;;;;;;;;;;;31.20;67.00;;;;;;5078197;28;19955;-75
2022/06/12 09:38:18;;;;;;;;;;;30.00;70.80;;;;;;5072399;28;19916;-75
2022/06/12 09:40:47;;;;;;;;;;;31.10;75.90;;;;;;5082761;28;19919;-75
2022/06/12 09:43:19;;;;;;;;;;;31.70;69.70;;;;;;5079988;28;20055;-75
2022/06/12 09:45:52;;;;;;;;;;;31.60;66.00;;;;;;5072875;28;20007;-74
2022/06/12 09:48:36;;;;;;;;;;;32.10;70.60;;;;;;5084321;28;19915;-76
2022/06/12 09:51:11;;;;;;;;;;;32.40;65.50;;;;;;5080568;28;20384;-74
2022/06/12 09:53:45;;;;;;;;;;;31.90;72.30;;;;;;5080390;28;19923;-75
2022/06/12 09:56:31;;;;;;;;;;;32.40;63.20;;;;;;5093250;28;19912;-75
2022/06/12 09:59:01;;;;;;;;;;;31.40;60.20;;;;;;5051371;28;19912;-74
2022/06/12 10:01:29;;;;;;;;;;;31.80;66.50;;;;;;5071986;28;19915;-74
2022/06/12 10:04:00;;;;;;;;;;;32.70;64.70;;;;;;5075839;28;20013;-74
2022/06/12 10:06:30;;;;;;;;;;;32.70;64.00;;;;;;5095685;28;19908;-72
2022/06/12 10:08:56;;;;;;;;;;;32.70;65.80;;;;;;5095729;28;19930;-76
2022/06/12 10:11:27;;;;;;;;;;;31.00;60.40;;;;;;5095207;28;20362;-75
2022/06/12 10:14:02;;;;;;;;;;;30.50;63.70;;;;;;5075329;28;20258;-75
2022/06/12 10:16:35;;;;;;;;;;;31.40;66.10;;;;;;5087641;28;19936;-75
2022/06/12 10:19:03;;;;;;;;;;;31.90;65.90;;;;;;5084740;28;19912;-75
2022/06/12 10:21:31;;;;;;;;;;;31.80;62.60;;;;;;5092733;28;19981;-75
2022/06/12 10:23:58;;;;;;;;;;;30.80;60.90;;;;;;5087243;28;19908;-75
2022/06/12 10:26:25;;;;;;;;;;;31.20;67.50;;;;;;5092808;28;19999;-75
2022/06/12 10:29:02;;;;;;;;;;;31.50;61.90;;;;;;5078107;28;19919;-76
2022/06/12 10:31:30;;;;;;;;;;;32.00;59.40;;;;;;5077235;28;19999;-75
2022/06/12 10:34:14;;;;;;;;;;;31.90;67.40;;;;;;5086601;28;20045;-76
2022/06/12 10:36:40;;;;;;;;;;;32.20;60.70;;;;;;5074724;28;20380;-74
2022/06/12 10:39:05;;;;;;;;;;;32.00;69.50;;;;;;5087346;28;20015;-75
2022/06/12 10:41:31;;;;;;;;;;;30.80;68.80;;;;;;5093115;28;19908;-75
2022/06/12 10:43:57;;;;;;;;;;;29.90;62.00;;;;;;5087758;28;19908;-75
2022/06/12 10:46:27;;;;;;;;;;;30.30;65.30;;;;;;5095379;28;19908;-75
2022/06/12 10:48:56;;;;;;;;;;;30.80;66.50;;;;;;5086170;28;20386;-75
2022/06/12 10:51:24;;;;;;;;;;;31.20;65.10;;;;;;5077478;28;19912;-76
2022/06/12 10:54:00;;;;;;;;;;;32.00;59.90;;;;;;5074037;28;20061;-74
2022/06/12 10:56:25;;;;;;;;;;;32.00;62.80;;;;;;5087793;28;19908;-75
2022/06/12 10:59:09;;;;;;;;;;;32.80;60.10;;;;;;5081316;28;19913;-76
2022/06/12 11:01:53;;;;;;;;;;;32.40;55.20;;;;;;5077013;28;19974;-77
2022/06/12 11:04:33;;;;;;;;;;;32.70;58.50;;;;;;5074667;28;19908;-77
2022/06/12 11:07:03;;;;;;;;;;;30.70;63.20;;;;;;5085863;28;20071;-75
2022/06/12 11:09:38;;;;;;;;;;;29.90;61.90;;;;;;5092151;28;20335;-74
2022/06/12 11:12:07;;;;;;;;;;;29.00;67.70;;;;;;5081132;28;19912;-74
2022/06/12 11:14:51;;;;;;;;;;;29.00;67.90;;;;;;5085326;28;19915;-73
2022/06/12 11:17:38;;;;;;;;;;;30.40;66.10;;;;;;5075914;28;19919;-73
2022/06/12 11:20:13;;;;;;;;;;;30.80;67.70;;;;;;5080130;28;19909;-74
2022/06/12 11:22:44;;;;;;;;;;;32.50;60.80;;;;;;5076421;28;19963;-74
2022/06/12 11:25:17;;;;;;;;;;;32.60;59.30;;;;;;5073701;28;19908;-74
2022/06/12 11:27:46;;;;;;;;;;;31.50;59.40;;;;;;5074088;28;19909;-74
2022/06/12 11:30:22;;;;;;;;;;;32.50;59.80;;;;;;5079151;28;20007;-75
2022/06/12 11:33:07;;;;;;;;;;;31.80;64.60;;;;;;5073311;28;20456;-75
2022/06/12 11:35:38;;;;;;;;;;;31.70;60.80;;;;;;5092375;28;19912;-75
2022/06/12 11:38:10;;;;;;;;;;;32.20;61.90;;;;;;5093698;28;19916;-75
2022/06/12 11:40:51;;;;;;;;;;;32.30;60.20;;;;;;5087375;28;20377;-74
2022/06/12 11:43:35;;;;;;;;;;;32.70;59.70;;;;;;5073241;28;19980;-75
2022/06/12 11:46:00;;;;;;;;;;;31.30;58.00;;;;;;5077521;28;20446;-75
2022/06/12 11:48:45;;;;;;;;;;;31.50;56.50;;;;;;5085405;28;19912;-75
2022/06/12 11:51:13;;;;;;;;;;;31.80;59.90;;;;;;5080143;28;19915;-76
2022/06/12 11:53:47;;;;;;;;;;;32.70;61.00;;;;;;5073006;28;19908;-74
2022/06/12 11:56:31;;;;;;;;;;;32.50;56.10;;;;;;5073964;28;20007;-75
2022/06/12 11:59:15;;;;;;;;;;;31.50;57.90;;;;;;5093613;28;20011;-75
2022/06/12 12:01:46;;;;;;;;;;;32.40;58.10;;;;;;5073877;28;19909;-75
2022/06/12 12:04:11;;;;;;;;;;;32.60;53.90;;;;;;5072293;28;19965;-75
2022/06/12 12:06:43;;;;;;;;;;;31.90;60.40;;;;;;5073447;28;20299;-75
2022/06/12 12:09:26;;;;;;;;;;;32.50;61.90;;;;;;5073645;28;19908;-75
2022/06/12 12:11:59;;;;;;;;;;;33.20;59.50;;;;;;5086783;28;19952;-75
2022/06/12 12:14:28;;;;;;;;;;;33.80;56.30;;;;;;5092083;28;19908;-76
2022/06/12 12:16:56;;;;;;;;;;;33.70;50.70;;;;;;5083906;28;19978;-75
2022/06/12 12:19:45;;;;;;;;;;;33.30;57.90;;;;;;5086258;28;19969;-75
2022/06/12 12:22:15;;;;;;;;;;;33.40;53.70;;;;;;5082095;28;19923;-73
2022/06/12 12:24:49;;;;;;;;;;;32.50;58.40;;;;;;5072558;28;20438;-75
2022/06/12 12:27:22;;;;;;;;;;;32.10;60.70;;;;;;5079970;28;20411;-74
2022/06/12 12:29:48;;;;;;;;;;;31.50;62.20;;;;;;5073484;28;19912;-74
2022/06/12 12:32:14;;;;;;;;;;;35.00;55.40;;;;;;5072827;28;19909;-75
2022/06/12 12:34:40;;;;;;;;;;;36.40;52.80;;;;;;5073532;28;19962;-76
2022/06/12 12:42:41;;;;;;;;;;;35.10;51.20;;;;;;5092733;28;19915;-75
2022/06/12 12:45:12;;;;;;;;;;;33.40;57.30;;;;;;5092066;28;19908;-75
2022/06/12 12:47:38;;;;;;;;;;;35.00;55.50;;;;;;5088211;28;19944;-75
2022/06/12 12:50:07;;;;;;;;;;;33.20;54.00;;;;;;5083028;28;19919;-74
2022/06/12 12:52:59;;;;;;;;;;;30.80;59.20;;;;;;5075806;28;20369;-74
2022/06/12 12:55:24;;;;;;;;;;;30.10;62.10;;;;;;5078257;28;19965;-74
2022/06/12 12:57:50;;;;;;;;;;;29.10;61.70;;;;;;5090383;28;19912;-75
2022/06/12 13:00:16;;;;;;;;;;;29.00;64.60;;;;;;5073241;28;20000;-74
2022/06/12 13:03:05;;;;;;;;;;;32.50;61.70;;;;;;5085909;28;19908;-75
2022/06/12 13:05:53;;;;;;;;;;;35.60;54.10;;;;;;5055702;28;19909;-74
2022/06/12 13:08:37;;;;;;;;;;;33.30;57.90;;;;;;5066419;28;20349;-74
2022/06/12 13:11:22;;;;;;;;;;;35.00;51.00;;;;;;5091781;28;20392;-74
2022/06/12 13:13:52;;;;;;;;;;;35.50;51.30;;;;;;5091670;28;19957;-74
2022/06/12 13:16:18;;;;;;;;;;;37.10;48.30;;;;;;5091868;28;19908;-74
2022/06/12 13:18:50;;;;;;;;;;;37.90;45.70;;;;;;5086719;28;19916;-73
2022/06/12 13:21:16;;;;;;;;;;;35.60;50.10;;;;;;5072677;28;19918;-73
2022/06/12 13:24:00;;;;;;;;;;;33.00;55.00;;;;;;5091375;28;19908;-75
2022/06/12 13:26:28;;;;;;;;;;;33.90;55.70;;;;;;5091917;28;19969;-74
2022/06/12 13:29:01;;;;;;;;;;;32.80;52.70;;;;;;5091470;28;20011;-74
2022/06/12 13:31:33;;;;;;;;;;;30.40;60.00;;;;;;5086929;28;20276;-74
2022/06/12 13:34:00;;;;;;;;;;;30.60;59.40;;;;;;5078602;28;20369;-74
2022/06/12 13:36:33;;;;;;;;;;;33.10;55.40;;;;;;5083576;28;19966;-75
2022/06/12 13:38:59;;;;;;;;;;;35.00;54.60;;;;;;5075377;28;19908;-74
2022/06/12 13:41:28;;;;;;;;;;;35.00;54.20;;;;;;5075266;28;20384;-75
2022/06/12 13:43:55;;;;;;;;;;;34.00;55.00;;;;;;5075130;28;19909;-74
2022/06/12 13:46:28;;;;;;;;;;;34.40;53.10;;;;;;5075474;28;19999;-74
2022/06/12 13:48:55;;;;;;;;;;;34.80;54.30;;;;;;5087826;28;19973;-74
2022/06/12 13:51:53;;;;;;;;;;;35.10;56.30;;;;;;5093230;28;20369;-74
2022/06/12 13:54:22;;;;;;;;;;;33.40;54.50;;;;;;5060957;28;20010;-74
2022/06/12 13:56:50;;;;;;;;;;;34.20;56.70;;;;;;5096905;28;19912;-75
2022/06/12 13:59:17;;;;;;;;;;;34.30;56.00;;;;;;5095547;28;19912;-75
2022/06/12 14:01:43;;;;;;;;;;;33.50;52.90;;;;;;5086433;28;19915;-74
2022/06/12 14:04:18;;;;;;;;;;;33.10;54.30;;;;;;5081648;28;19916;-75
2022/06/12 14:06:44;;;;;;;;;;;33.70;58.60;;;;;;5076138;28;19916;-76
2022/06/12 14:09:18;;;;;;;;;;;34.70;52.60;;;;;;5075984;28;19935;-75
2022/06/12 14:11:45;;;;;;;;;;;33.90;53.10;;;;;;5075889;28;19920;-76
2022/06/12 14:14:29;;;;;;;;;;;34.80;54.90;;;;;;5075596;28;20379;-76
2022/06/12 14:16:55;;;;;;;;;;;34.90;51.50;;;;;;5075561;28;19963;-75
2022/06/12 14:19:28;;;;;;;;;;;34.90;54.70;;;;;;5076939;28;19908;-75
2022/06/12 14:22:12;;;;;;;;;;;34.00;55.70;;;;;;5096223;28;19938;-74
2022/06/12 14:24:40;;;;;;;;;;;35.30;54.60;;;;;;5093799;28;19954;-75
2022/06/12 14:27:19;;;;;;;;;;;33.90;52.50;;;;;;5088275;28;19917;-74
2022/06/12 14:29:45;;;;;;;;;;;34.20;53.80;;;;;;5078341;28;19919;-75
2022/06/12 14:32:11;;;;;;;;;;;34.70;53.70;;;;;;5084585;28;19912;-73
2022/06/12 14:34:37;;;;;;;;;;;34.90;53.30;;;;;;5080781;28;20258;-76
2022/06/12 14:37:03;;;;;;;;;;;34.00;53.70;;;;;;5085450;28;19920;-75
2022/06/12 14:39:32;;;;;;;;;;;33.80;55.90;;;;;;5082190;28;19912;-74
2022/06/12 14:42:09;;;;;;;;;;;34.40;55.50;;;;;;5077713;28;19912;-75
2022/06/12 14:44:36;;;;;;;;;;;33.70;56.40;;;;;;5074186;28;19999;-75
2022/06/12 14:47:24;;;;;;;;;;;33.30;59.40;;;;;;5092458;28;19953;-75
2022/06/12 14:49:50;;;;;;;;;;;32.50;56.30;;;;;;5073319;28;19909;-75
2022/06/12 14:52:21;;;;;;;;;;;31.00;61.20;;;;;;5094001;28;19915;-74